createdAt,value
2017-10-20T00:01:22.805Z,99517.33
2017-10-20T00:04:24.109Z,99504.40
2017-10-20T00:07:27.077Z,99509.87
2017-10-20T00:10:28.873Z,99519.88
2017-10-20T00:13:31.020Z,99521.25
2017-10-20T00:16:32.425Z,99513.96
2017-10-20T00:19:33.817Z,99520.25
2017-10-20T00:22:35.183Z,99508.53
2017-10-20T00:25:36.629Z,99508.28
2017-10-20T00:28:38.055Z,99516.72
2017-10-20T00:31:39.431Z,99521.98
2017-10-20T00:34:40.884Z,99512.44
2017-10-20T00:37:42.328Z,99512.06
2017-10-20T00:40:43.775Z,99511.36
2017-10-20T00:43:45.267Z,99517.96
2017-10-20T00:46:47.419Z,99522.09
2017-10-20T00:49:48.864Z,99527.34
2017-10-20T00:52:50.340Z,99526.88
2017-10-20T00:55:52.606Z,99522.00
2017-10-20T00:58:54.776Z,99514.77
2017-10-20T01:01:56.286Z,99514.50
2017-10-20T01:04:57.781Z,99512.83
2017-10-20T01:07:59.266Z,99529.67
2017-10-20T01:11:00.684Z,99512.77
2017-10-20T01:14:02.117Z,99514.66
2017-10-20T01:17:03.542Z,99506.52
2017-10-20T01:20:05.026Z,99504.19
2017-10-20T01:23:06.498Z,99505.00
2017-10-20T01:26:08.663Z,99494.20
2017-10-20T01:29:10.925Z,99510.23
2017-10-20T01:32:12.363Z,99504.94
2017-10-20T01:35:13.944Z,99496.72
2017-10-20T01:38:16.120Z,99507.13
2017-10-20T01:41:18.415Z,99504.48
2017-10-20T01:44:20.364Z,99495.02
2017-10-20T01:47:22.584Z,99487.75
2017-10-20T01:50:24.142Z,99501.42
2017-10-20T01:53:25.628Z,99482.37
2017-10-20T01:56:27.168Z,99494.24
2017-10-20T01:59:28.615Z,99497.31
2017-10-20T02:02:30.078Z,99488.73
2017-10-20T02:05:31.605Z,99482.26
2017-10-20T02:08:33.060Z,99480.39
2017-10-20T02:11:34.457Z,99475.77
2017-10-20T02:14:36.691Z,99478.82
2017-10-20T02:17:39.230Z,99475.48
2017-10-20T02:20:41.800Z,99477.36
2017-10-20T02:23:43.911Z,99471.05
2017-10-20T02:26:45.898Z,99470.94
2017-10-20T02:29:48.207Z,99464.72
2017-10-20T02:32:49.728Z,99468.36
2017-10-20T02:35:51.878Z,99463.79
2017-10-20T02:38:53.328Z,99469.48
2017-10-20T02:41:54.710Z,99475.89
2017-10-20T02:44:56.128Z,99462.73
2017-10-20T02:47:57.501Z,99447.28
2017-10-20T02:50:58.960Z,99442.89
2017-10-20T02:54:01.194Z,99440.49
2017-10-20T02:57:02.584Z,99449.18
2017-10-20T03:00:04.037Z,99447.69
2017-10-20T03:03:05.552Z,99446.39
2017-10-20T03:06:07.049Z,99448.65
2017-10-20T03:09:08.445Z,99436.33
2017-10-20T03:12:10.597Z,99417.90
2017-10-20T03:15:12.697Z,99417.64
2017-10-20T03:18:14.104Z,99416.85
2017-10-20T03:21:15.534Z,99426.52
2017-10-20T03:24:16.921Z,99422.06
2017-10-20T03:27:19.064Z,99418.91
2017-10-20T03:30:20.500Z,99407.23
2017-10-20T03:33:21.944Z,99408.16
2017-10-20T03:36:23.288Z,99414.64
2017-10-20T03:39:24.704Z,99423.18
2017-10-20T03:42:26.759Z,99410.61
2017-10-20T03:45:28.945Z,99414.83
2017-10-20T03:48:31.042Z,99410.13
2017-10-20T03:51:32.457Z,99402.36
2017-10-20T03:54:34.649Z,99403.92
2017-10-20T03:57:36.002Z,99404.74
2017-10-20T04:00:37.396Z,99402.84
2017-10-20T04:03:38.757Z,99409.78
2017-10-20T04:06:40.105Z,99401.45
2017-10-20T04:09:41.531Z,99399.63
2017-10-20T04:12:43.029Z,99403.12
2017-10-20T04:15:45.204Z,99403.50
2017-10-20T04:18:46.609Z,99405.72
2017-10-20T04:21:48.765Z,99412.95
2017-10-20T04:24:50.112Z,99410.39
2017-10-20T04:27:51.482Z,99401.67
2017-10-20T04:30:52.875Z,99397.45
2017-10-20T04:33:55.057Z,99398.81
2017-10-20T04:36:56.456Z,99402.00
2017-10-20T04:39:57.819Z,99408.97
2017-10-20T04:42:59.207Z,99416.62
2017-10-20T04:46:00.549Z,99419.91
2017-10-20T04:49:02.642Z,99429.70
2017-10-20T04:52:04.079Z,99422.79
2017-10-20T04:55:05.469Z,99428.54
2017-10-20T04:58:06.813Z,99407.83
2017-10-20T05:01:08.202Z,99421.17
2017-10-20T05:04:10.380Z,99426.41
2017-10-20T05:07:12.489Z,99432.95
2017-10-20T05:10:13.922Z,99419.97
2017-10-20T05:13:15.257Z,99418.52
2017-10-20T05:16:17.399Z,99411.44
2017-10-20T05:19:18.781Z,99403.92
2017-10-20T05:22:20.877Z,99412.44
2017-10-20T05:25:22.233Z,99428.34
2017-10-20T05:28:23.628Z,99426.14
2017-10-20T05:31:25.025Z,99422.63
2017-10-20T05:34:26.407Z,99410.77
2017-10-20T05:37:27.839Z,99420.21
2017-10-20T05:40:29.188Z,99428.53
2017-10-20T05:43:30.579Z,99427.66
2017-10-20T05:46:31.923Z,99436.37
2017-10-20T05:49:33.392Z,99428.66
2017-10-20T05:52:34.807Z,99428.45
2017-10-20T05:55:36.196Z,99437.28
2017-10-20T05:58:37.560Z,99429.36
2017-10-20T06:01:39.669Z,99432.09
2017-10-20T06:04:41.061Z,99425.62
2017-10-20T06:07:42.419Z,99424.39
2017-10-20T06:10:44.532Z,99430.22
2017-10-20T06:13:45.937Z,99428.83
2017-10-20T06:16:47.280Z,99419.25
2017-10-20T06:19:49.480Z,99424.05
2017-10-20T06:22:50.881Z,99431.24
2017-10-20T06:25:52.988Z,99434.86
2017-10-20T06:28:55.096Z,99438.66
2017-10-20T06:31:56.492Z,99432.58
2017-10-20T06:34:57.886Z,99443.41
2017-10-20T06:37:59.350Z,99437.20
2017-10-20T06:41:00.729Z,99447.95
2017-10-20T06:44:02.176Z,99438.08
2017-10-20T06:47:03.548Z,99437.73
2017-10-20T06:50:04.981Z,99408.28
2017-10-20T06:53:07.208Z,99420.00
2017-10-20T06:56:08.582Z,99421.83
2017-10-20T06:59:09.996Z,99415.16
2017-10-20T07:02:12.127Z,99411.20
2017-10-20T07:05:13.524Z,99403.77
2017-10-20T07:08:14.970Z,99392.73
2017-10-20T07:11:17.059Z,99387.39
2017-10-20T07:14:18.488Z,99395.44
2017-10-20T07:17:20.614Z,99391.41
2017-10-20T07:20:23.966Z,99394.38
2017-10-20T07:23:25.365Z,99396.05
2017-10-20T07:26:26.782Z,99398.22
2017-10-20T07:29:28.288Z,99393.34
2017-10-20T07:32:29.878Z,99385.76
2017-10-20T07:35:31.249Z,99397.78
2017-10-20T07:38:32.619Z,99393.45
2017-10-20T07:41:33.985Z,99403.65
2017-10-20T07:44:35.332Z,99397.36
2017-10-20T07:47:36.736Z,99383.80
2017-10-20T07:50:38.172Z,99388.50
2017-10-20T07:53:40.359Z,99391.70
2017-10-20T07:56:41.729Z,99389.39
2017-10-20T07:59:43.085Z,99398.30
2017-10-20T08:02:44.434Z,99398.48
2017-10-20T08:05:45.875Z,99392.81
2017-10-20T08:08:47.253Z,99394.26
2017-10-20T08:11:48.808Z,99393.37
2017-10-20T08:14:50.866Z,99390.23
2017-10-20T08:17:52.229Z,99381.20
2017-10-20T08:20:54.440Z,99390.84
2017-10-20T08:23:56.531Z,99377.17
2017-10-20T08:26:57.901Z,99399.33
2017-10-20T08:29:59.184Z,99403.52
2017-10-20T08:33:00.522Z,99398.93
2017-10-20T08:36:01.846Z,99405.77
2017-10-20T08:39:03.205Z,99408.56
2017-10-20T08:42:04.510Z,99423.16
2017-10-20T08:45:05.856Z,99404.52
2017-10-20T08:48:07.893Z,99401.55
2017-10-20T08:51:09.231Z,99412.98
2017-10-20T08:54:10.553Z,99409.78
2017-10-20T08:57:11.928Z,99409.66
2017-10-20T09:00:13.198Z,99409.27
2017-10-20T09:03:14.556Z,99396.84
2017-10-20T09:06:16.637Z,99402.16
2017-10-20T09:12:20.672Z,99418.75
2017-10-20T09:15:22.754Z,99415.11
2017-10-20T09:18:24.072Z,99415.29
2017-10-20T09:21:26.158Z,99406.91
2017-10-20T09:24:27.485Z,99412.39
2017-10-20T09:27:28.809Z,99422.35
2017-10-20T09:30:30.129Z,99432.77
2017-10-20T09:33:31.468Z,99468.19
2017-10-20T09:36:32.745Z,99482.27
2017-10-20T09:39:34.053Z,99487.77
2017-10-20T09:42:35.369Z,99491.41
2017-10-20T09:45:36.674Z,99482.57
2017-10-20T09:48:37.971Z,99500.91
2017-10-20T09:51:39.296Z,99504.72
2017-10-20T09:54:40.583Z,99500.42
2017-10-20T09:57:42.638Z,99506.39
2017-10-20T10:00:43.928Z,99507.88
2017-10-20T10:03:45.243Z,99509.24
2017-10-20T10:06:47.267Z,99501.30
2017-10-20T10:09:48.563Z,99506.02
2017-10-20T10:12:50.640Z,99512.50
2017-10-20T10:15:52.681Z,99505.92
2017-10-20T10:18:54.004Z,99513.28
2017-10-20T10:25:03.465Z,99522.38
2017-10-20T10:28:04.772Z,99519.92
2017-10-20T10:31:06.117Z,99522.97
2017-10-20T10:34:08.192Z,99528.16
2017-10-20T10:37:09.473Z,99515.89
2017-10-20T10:40:10.765Z,99518.38
2017-10-20T10:43:12.038Z,99521.70
2017-10-20T10:46:13.425Z,99524.92
2017-10-20T10:49:14.748Z,99525.19
2017-10-20T10:52:16.085Z,99533.31
2017-10-20T10:55:17.391Z,99520.23
2017-10-20T10:58:18.754Z,99528.52
2017-10-20T11:01:20.088Z,99526.44
2017-10-20T11:04:21.356Z,99524.80
2017-10-20T11:07:41.482Z,99528.94
2017-10-20T11:14:26.489Z,99529.77
2017-10-20T11:17:28.540Z,99524.28
2017-10-20T11:20:29.907Z,99531.59
2017-10-20T11:23:31.228Z,99524.66
2017-10-20T11:26:33.250Z,99525.88
2017-10-20T11:29:34.685Z,99535.86
2017-10-20T11:32:36.047Z,99545.52
2017-10-20T11:35:37.374Z,99542.98
2017-10-20T11:38:38.732Z,99545.75
2017-10-20T11:41:40.123Z,99545.73
2017-10-20T11:44:41.506Z,99551.51
2017-10-20T11:47:42.837Z,99549.52
2017-10-20T11:50:44.942Z,99558.39
2017-10-20T11:53:46.290Z,99566.56
2017-10-20T11:56:47.665Z,99568.63
2017-10-20T11:59:49.035Z,99563.94
2017-10-20T12:02:50.382Z,99558.78
2017-10-20T12:05:51.747Z,99574.08
2017-10-20T12:08:53.072Z,99571.26
2017-10-20T12:11:54.529Z,99583.03
2017-10-20T12:14:55.968Z,99579.10
2017-10-20T12:17:57.359Z,99577.89
2017-10-20T12:20:59.458Z,99582.70
2017-10-20T12:24:00.838Z,99587.17
2017-10-20T12:27:02.221Z,99578.67
2017-10-20T12:30:04.331Z,99589.77
2017-10-20T12:33:05.720Z,99581.95
2017-10-20T12:36:07.053Z,99581.88
2017-10-20T12:39:08.474Z,99591.03
2017-10-20T12:42:09.804Z,99591.17
2017-10-20T12:45:11.901Z,99581.45
2017-10-20T12:48:13.228Z,99582.87
2017-10-20T12:51:15.224Z,99573.38
2017-10-20T12:54:16.605Z,99575.92
2017-10-20T12:57:17.899Z,99580.13
2017-10-20T13:00:19.224Z,99577.70
2017-10-20T13:03:20.519Z,99593.42
2017-10-20T13:06:21.895Z,99592.08
2017-10-20T13:09:23.258Z,99585.95
2017-10-20T13:12:24.599Z,99585.29
2017-10-20T13:15:26.057Z,99590.70
2017-10-20T13:18:27.305Z,99597.44
2017-10-20T13:21:28.590Z,99589.78
2017-10-20T13:24:31.964Z,99609.23
2017-10-20T13:27:33.273Z,99610.80
2017-10-20T13:30:34.551Z,99615.45
2017-10-20T13:33:35.876Z,99615.43
2017-10-20T13:36:37.177Z,99607.37
2017-10-20T13:39:39.236Z,99604.26
2017-10-20T13:42:40.541Z,99601.91
2017-10-20T13:45:41.890Z,99594.78
2017-10-20T13:48:43.167Z,99597.39
2017-10-20T13:51:44.453Z,99607.87
2017-10-20T13:54:46.573Z,99607.88
2017-10-20T13:57:47.915Z,99615.66
2017-10-20T14:00:49.231Z,99616.39
2017-10-20T14:03:50.525Z,99617.20
2017-10-20T14:06:51.833Z,99617.15
2017-10-20T14:09:53.150Z,99611.25
2017-10-20T14:12:54.436Z,99630.55
2017-10-20T14:15:55.732Z,99621.27
2017-10-20T14:18:57.033Z,99622.42
2017-10-20T14:21:58.335Z,99624.94
2017-10-20T14:24:59.598Z,99618.20
2017-10-20T14:28:01.864Z,99634.12
2017-10-20T14:31:04.409Z,99622.59
2017-10-20T14:34:05.813Z,99633.74
2017-10-20T14:37:07.203Z,99632.66
2017-10-20T14:40:08.561Z,99639.14
2017-10-20T14:43:10.750Z,99632.63
2017-10-20T14:46:12.109Z,99640.52
2017-10-20T14:49:14.526Z,99639.75
2017-10-20T14:52:15.881Z,99645.91
2017-10-20T14:55:17.394Z,99652.53
2017-10-20T14:58:19.616Z,99660.73
2017-10-20T15:01:21.058Z,99656.94
2017-10-20T15:04:22.425Z,99670.59
2017-10-20T15:07:23.776Z,99667.01
2017-10-20T15:10:25.338Z,99681.81
2017-10-20T15:13:26.679Z,99682.98
2017-10-20T15:16:27.983Z,99690.30
2017-10-20T15:19:30.042Z,99683.92
2017-10-20T15:22:32.705Z,99695.34
2017-10-20T15:25:34.219Z,99700.71
2017-10-20T15:28:35.754Z,99699.96
2017-10-20T15:31:37.291Z,99698.92
2017-10-20T15:34:39.631Z,99691.76
2017-10-20T15:37:41.174Z,99697.13
2017-10-20T15:40:42.712Z,99707.35
2017-10-20T15:43:44.372Z,99706.99
2017-10-20T15:46:45.949Z,99694.63
2017-10-20T15:49:47.467Z,99697.66
2017-10-20T15:52:49.019Z,99699.58
2017-10-20T15:55:51.236Z,99693.53
2017-10-20T15:58:52.960Z,99691.62
2017-10-20T16:01:54.468Z,99694.70
2017-10-20T16:04:56.745Z,99711.27
2017-10-20T16:07:58.545Z,99717.59
2017-10-20T16:11:00.319Z,99706.81
2017-10-20T16:14:01.844Z,99715.00
2017-10-20T16:17:03.519Z,99728.46
2017-10-20T16:20:05.079Z,99725.72
2017-10-20T16:23:06.564Z,99730.98
2017-10-20T16:26:08.452Z,99737.86
2017-10-20T16:29:11.249Z,99733.34
2017-10-20T16:32:13.117Z,99729.05
2017-10-20T16:35:16.060Z,99720.59
2017-10-20T16:38:17.647Z,99728.54
2017-10-20T16:41:21.155Z,99736.67
2017-10-20T16:44:23.905Z,99732.65
2017-10-20T16:47:25.733Z,99739.45
2017-10-20T16:50:28.013Z,99737.92
2017-10-20T16:53:29.625Z,99738.98
2017-10-20T16:56:32.525Z,99747.88
2017-10-20T16:59:34.092Z,99763.73
2017-10-20T17:02:35.676Z,99755.83
2017-10-20T17:05:38.071Z,99761.28
2017-10-20T17:08:41.556Z,99768.64
2017-10-20T17:11:43.217Z,99762.98
2017-10-20T17:14:44.928Z,99773.02
2017-10-20T17:17:50.728Z,99779.16
2017-10-20T17:20:52.689Z,99787.29
2017-10-20T17:23:54.337Z,99798.83
2017-10-20T17:26:56.468Z,99782.17
2017-10-20T17:29:58.728Z,99808.14
2017-10-20T17:33:00.691Z,99790.08
2017-10-20T17:36:03.823Z,99801.34
2017-10-20T17:39:06.457Z,99799.64
2017-10-20T17:42:07.976Z,99808.88
2017-10-20T17:45:09.619Z,99801.73
2017-10-20T17:48:11.763Z,99802.53
2017-10-20T17:51:13.316Z,99820.23
2017-10-20T17:54:15.247Z,99806.18
2017-10-20T17:57:18.031Z,99803.02
2017-10-20T18:00:20.122Z,99816.63
2017-10-20T18:03:21.719Z,99821.16
2017-10-20T18:06:23.645Z,99814.91
2017-10-20T18:09:25.572Z,99823.80
2017-10-20T18:12:27.117Z,99819.30
2017-10-20T18:15:28.718Z,99838.99
2017-10-20T18:18:30.250Z,99821.91
2017-10-20T18:21:31.870Z,99828.67
2017-10-20T18:24:33.473Z,99833.29
2017-10-20T18:27:35.816Z,99825.98
2017-10-20T18:30:37.350Z,99834.75
2017-10-20T18:33:38.888Z,99840.33
2017-10-20T18:36:41.347Z,99844.33
2017-10-20T18:39:43.676Z,99842.20
2017-10-20T18:42:45.196Z,99851.70
2017-10-20T18:45:47.724Z,99845.76
2017-10-20T18:48:49.486Z,99844.30
2017-10-20T18:51:52.138Z,99848.56
2017-10-20T18:54:53.699Z,99839.86
2017-10-20T18:57:55.344Z,99846.77
2017-10-20T19:00:56.868Z,99838.52
2017-10-20T19:07:07.838Z,99844.62
2017-10-20T19:10:09.482Z,99851.69
2017-10-20T19:13:11.065Z,99858.81
2017-10-20T19:16:13.305Z,99861.08
2017-10-20T19:19:14.878Z,99858.75
2017-10-20T19:22:16.380Z,99867.91
2017-10-20T19:25:18.617Z,99865.16
2017-10-20T19:28:20.307Z,99879.49
2017-10-20T19:31:21.825Z,99865.03
2017-10-20T19:34:24.048Z,99879.00
2017-10-20T19:37:25.693Z,99869.70
2017-10-20T19:40:27.413Z,99872.01
2017-10-20T19:43:30.195Z,99883.40
2017-10-20T19:46:32.591Z,99887.75
2017-10-20T19:49:35.170Z,99879.73
2017-10-20T19:52:37.502Z,99887.67
2017-10-20T19:55:39.213Z,99881.29
2017-10-20T19:58:41.790Z,99888.41
2017-10-20T20:01:43.687Z,99883.29
2017-10-20T20:04:45.204Z,99891.00
2017-10-20T20:07:47.764Z,99892.63
2017-10-20T20:10:49.346Z,99891.58
2017-10-20T20:13:51.099Z,99894.77
2017-10-20T20:16:52.672Z,99899.38
2017-10-20T20:19:54.296Z,99898.09
2017-10-20T20:22:56.623Z,99892.02
2017-10-20T20:25:58.128Z,99905.08
2017-10-20T20:29:00.444Z,99907.21
2017-10-20T20:32:02.790Z,99897.92
2017-10-20T20:35:05.096Z,99917.14
2017-10-20T20:38:06.659Z,99908.92
2017-10-20T20:41:08.277Z,99904.59
2017-10-20T20:44:09.814Z,99896.85
2017-10-20T20:47:12.128Z,99904.59
2017-10-20T20:50:13.609Z,99904.16
2017-10-20T20:53:15.245Z,99908.06
2017-10-20T20:56:16.923Z,99907.17
2017-10-20T20:59:18.664Z,99900.58
2017-10-20T21:02:20.417Z,99896.78
2017-10-20T21:05:22.000Z,99903.58
2017-10-20T21:08:23.481Z,99901.06
2017-10-20T21:11:25.863Z,99895.28
2017-10-20T21:14:27.455Z,99893.36
2017-10-20T21:17:28.953Z,99881.42
2017-10-20T21:20:30.467Z,99893.49
2017-10-20T21:23:31.994Z,99888.89
2017-10-20T21:26:33.581Z,99903.15
2017-10-20T21:29:35.111Z,99899.38
2017-10-20T21:32:36.615Z,99902.23
2017-10-20T21:35:38.303Z,99899.16
2017-10-20T21:38:39.916Z,99901.19
2017-10-20T21:41:41.437Z,99904.06
2017-10-20T21:44:43.022Z,99902.03
2017-10-20T21:47:45.304Z,99900.09
2017-10-20T21:50:46.822Z,99896.36
2017-10-20T21:53:48.368Z,99906.14
2017-10-20T21:56:49.948Z,99901.23
2017-10-20T21:59:51.474Z,99893.48
2017-10-20T22:02:53.519Z,99884.00
2017-10-20T22:05:55.004Z,99885.47
2017-10-20T22:08:56.544Z,99882.27
2017-10-20T22:11:58.100Z,99891.59
2017-10-20T22:14:59.635Z,99899.66
2017-10-20T22:18:01.912Z,99896.53
2017-10-20T22:21:04.159Z,99901.37
2017-10-20T22:24:05.767Z,99910.29
2017-10-20T22:27:07.240Z,99905.73
2017-10-20T22:30:08.757Z,99896.19
2017-10-20T22:33:10.296Z,99909.03
2017-10-20T22:36:12.613Z,99896.27
2017-10-20T22:39:14.165Z,99896.58
2017-10-20T22:42:15.660Z,99908.06
2017-10-20T22:45:17.171Z,99896.48
2017-10-20T22:48:18.647Z,99904.03
2017-10-20T22:54:28.341Z,99894.11
2017-10-20T22:57:29.864Z,99892.80
2017-10-20T23:00:32.136Z,99901.66
2017-10-20T23:03:33.654Z,99894.84
2017-10-20T23:06:35.235Z,99899.44
2017-10-20T23:09:36.750Z,99908.59
2017-10-20T23:12:39.000Z,99910.64
2017-10-20T23:15:41.247Z,99902.32
2017-10-20T23:18:42.749Z,99897.55
2017-10-20T23:21:45.048Z,99897.72
2017-10-20T23:24:46.572Z,99905.50
2017-10-20T23:27:48.929Z,99897.61
2017-10-20T23:30:50.404Z,99908.16
2017-10-20T23:33:52.648Z,99914.97
2017-10-20T23:36:54.149Z,99913.71
2017-10-20T23:39:55.691Z,99911.70
2017-10-20T23:46:05.534Z,99907.98
2017-10-20T23:49:07.775Z,99905.05
2017-10-20T23:52:10.012Z,99905.70
2017-10-20T23:55:11.587Z,99909.77
2017-10-20T23:58:13.048Z,99911.66
